Time;durP1;ratioP1;P1;durP2;ratioP2;P2;SDS_P1;SDS_P2;PMS_P1;PMS_P2;Temp;Humidity;BMP_temperature;BMP_pressure;BME280_temperature;BME280_humidity;BME280_pressure;Samples;Min_cycle;Max_cycle;Signal;HPM_P1;HPM_P2
2023/07/11 00:02:13;;;;;;;5.95;4.00;;;;;;;;;;5024116;28;20468;-63
2023/07/11 00:04:59;;;;;;;6.05;3.42;;;;;;;;;;5012439;28;20026;-69
2023/07/11 00:07:45;;;;;;;8.30;4.40;;;;;;;;;;5030358;28;20031;-69
2023/07/11 00:10:30;;;;;;;7.22;4.03;;;;;;;;;;5028008;28;20142;-69
2023/07/11 00:13:15;;;;;;;6.18;4.20;;;;;;;;;;5026074;28;20040;-71
2023/07/11 00:16:05;;;;;;;8.68;5.00;;;;;;;;;;5027409;28;20021;-70
2023/07/11 00:18:50;;;;;;;7.45;3.80;;;;;;;;;;5027180;28;20025;-66
2023/07/11 00:21:35;;;;;;;7.22;3.78;;;;;;;;;;5025729;28;20026;-68
2023/07/11 00:24:20;;;;;;;9.05;5.00;;;;;;;;;;5023363;28;20052;-67
2023/07/11 00:27:06;;;;;;;7.00;4.57;;;;;;;;;;5024607;28;20028;-67
2023/07/11 00:29:51;;;;;;;5.55;3.65;;;;;;;;;;5027434;28;20021;-67
2023/07/11 00:32:36;;;;;;;5.40;3.85;;;;;;;;;;5025355;28;20025;-67
2023/07/11 00:35:21;;;;;;;5.25;3.78;;;;;;;;;;5018190;28;20083;-67
2023/07/11 00:38:07;;;;;;;5.88;4.20;;;;;;;;;;5027139;28;20512;-65
2023/07/11 00:40:52;;;;;;;7.13;3.95;;;;;;;;;;5024177;28;20029;-68
2023/07/11 00:43:37;;;;;;;8.35;4.28;;;;;;;;;;5023158;28;20021;-67
2023/07/11 00:46:22;;;;;;;6.72;4.13;;;;;;;;;;5029998;28;20033;-66
2023/07/11 00:49:13;;;;;;;7.28;4.50;;;;;;;;;;5027914;28;20026;-64
2023/07/11 00:52:00;;;;;;;7.13;4.75;;;;;;;;;;5019879;28;20120;-63
2023/07/11 00:54:47;;;;;;;6.78;4.22;;;;;;;;;;5028918;28;20108;-66
2023/07/11 00:57:34;;;;;;;5.75;4.03;;;;;;;;;;5030700;28;20021;-63
2023/07/11 01:00:19;;;;;;;7.97;4.45;;;;;;;;;;5031171;28;20468;-64
2023/07/11 01:03:04;;;;;;;7.95;4.72;;;;;;;;;;5025477;28;20029;-63
2023/07/11 01:05:50;;;;;;;8.02;4.55;;;;;;;;;;5020888;28;20048;-66
2023/07/11 01:08:35;;;;;;;8.23;5.18;;;;;;;;;;5035933;28;20024;-65
2023/07/11 01:11:21;;;;;;;10.05;4.85;;;;;;;;;;5031272;28;20033;-64
2023/07/11 01:14:07;;;;;;;9.68;4.55;;;;;;;;;;5029879;28;20069;-64
2023/07/11 01:16:52;;;;;;;7.75;4.72;;;;;;;;;;5030242;28;20160;-63
2023/07/11 01:19:37;;;;;;;9.27;5.10;;;;;;;;;;5016107;28;20404;-63
2023/07/11 01:22:23;;;;;;;7.57;4.60;;;;;;;;;;5028681;28;20025;-63
2023/07/11 01:25:13;;;;;;;8.68;4.88;;;;;;;;;;5025220;28;20042;-65
2023/07/11 01:27:58;;;;;;;11.30;6.07;;;;;;;;;;5030409;28;20029;-64
2023/07/11 01:30:43;;;;;;;9.13;4.88;;;;;;;;;;5031421;28;20112;-63
2023/07/11 01:33:29;;;;;;;9.27;5.55;;;;;;;;;;5023256;28;20477;-65
2023/07/11 01:36:14;;;;;;;11.18;6.57;;;;;;;;;;5024438;28;20068;-65
2023/07/11 01:38:59;;;;;;;8.93;6.15;;;;;;;;;;5030142;28;20104;-64
2023/07/11 01:41:45;;;;;;;8.82;5.90;;;;;;;;;;5026133;28;20021;-66
2023/07/11 01:44:31;;;;;;;13.52;6.47;;;;;;;;;;5026601;28;20044;-65
2023/07/11 01:47:16;;;;;;;10.32;6.93;;;;;;;;;;5029024;28;20041;-65
2023/07/11 01:50:02;;;;;;;11.48;6.90;;;;;;;;;;5021259;28;20521;-65
2023/07/11 01:52:47;;;;;;;12.40;6.10;;;;;;;;;;5028959;28;20045;-67
2023/07/11 01:55:32;;;;;;;14.07;6.90;;;;;;;;;;5017322;28;20042;-64
2023/07/11 01:58:17;;;;;;;10.48;6.55;;;;;;;;;;5023151;28;20033;-62
2023/07/11 02:01:02;;;;;;;10.93;6.68;;;;;;;;;;5029327;28;20065;-63
2023/07/11 02:03:48;;;;;;;11.82;6.57;;;;;;;;;;5025315;28;20045;-62
2023/07/11 02:06:33;;;;;;;11.00;6.78;;;;;;;;;;5028804;28;20080;-63
2023/07/11 02:09:19;;;;;;;12.30;7.63;;;;;;;;;;5030918;28;20032;-68
2023/07/11 02:12:04;;;;;;;10.43;6.90;;;;;;;;;;5029564;28;20041;-63
2023/07/11 02:14:49;;;;;;;12.63;7.97;;;;;;;;;;5026816;28;20086;-65
2023/07/11 02:17:35;;;;;;;12.52;6.80;;;;;;;;;;5023000;28;20036;-62
2023/07/11 02:20:20;;;;;;;11.23;7.60;;;;;;;;;;5028557;28;20037;-63
2023/07/11 02:23:06;;;;;;;13.77;7.85;;;;;;;;;;5028880;28;20401;-63
2023/07/11 02:25:53;;;;;;;14.20;8.25;;;;;;;;;;5029452;28;20479;-66
2023/07/11 02:28:38;;;;;;;10.57;7.25;;;;;;;;;;5024819;28;20032;-63
2023/07/11 02:31:23;;;;;;;11.38;7.50;;;;;;;;;;5020684;28;20056;-65
2023/07/11 02:34:09;;;;;;;11.40;7.35;;;;;;;;;;5027653;28;20034;-66
2023/07/11 02:36:54;;;;;;;13.35;8.02;;;;;;;;;;5018548;28;20060;-67
2023/07/11 02:39:39;;;;;;;13.55;7.28;;;;;;;;;;5029090;28;20261;-66
2023/07/11 02:42:24;;;;;;;14.18;8.05;;;;;;;;;;5027317;28;20033;-66
2023/07/11 02:45:10;;;;;;;11.25;6.90;;;;;;;;;;5027828;28;20017;-62
2023/07/11 02:47:55;;;;;;;13.27;6.93;;;;;;;;;;5018564;28;20092;-64
2023/07/11 02:50:40;;;;;;;16.92;7.35;;;;;;;;;;5023642;28;20029;-69
2023/07/11 02:53:26;;;;;;;11.15;6.78;;;;;;;;;;5039820;28;20441;-68
2023/07/11 02:56:11;;;;;;;13.57;8.20;;;;;;;;;;5027254;28;20039;-68
2023/07/11 02:59:00;;;;;;;11.90;8.13;;;;;;;;;;5024910;28;20030;-67
2023/07/11 03:01:45;;;;;;;14.68;8.60;;;;;;;;;;5025453;28;20017;-67
2023/07/11 03:04:31;;;;;;;13.23;8.65;;;;;;;;;;5020481;28;20116;-65
2023/07/11 03:07:16;;;;;;;13.63;8.73;;;;;;;;;;5050100;23;20025;-73
2023/07/11 03:10:02;;;;;;;14.10;9.60;;;;;;;;;;5032723;28;20045;-76
2023/07/11 03:12:47;;;;;;;12.98;9.02;;;;;;;;;;5033430;28;20053;-72
2023/07/11 03:15:33;;;;;;;14.80;8.85;;;;;;;;;;5038601;28;20036;-72
2023/07/11 03:18:18;;;;;;;14.57;9.55;;;;;;;;;;5047881;28;20029;-73
2023/07/11 03:21:04;;;;;;;15.05;9.77;;;;;;;;;;5030048;28;20102;-73
2023/07/11 03:23:52;;;;;;;13.65;8.50;;;;;;;;;;5051358;28;20033;-67
2023/07/11 03:26:37;;;;;;;13.68;9.18;;;;;;;;;;5043547;28;20694;-62
2023/07/11 03:29:22;;;;;;;18.48;8.75;;;;;;;;;;5038997;28;20094;-63
2023/07/11 03:32:09;;;;;;;13.02;8.98;;;;;;;;;;5042807;28;20040;-63
2023/07/11 03:34:54;;;;;;;14.05;8.88;;;;;;;;;;5043291;28;20032;-63
2023/07/11 03:37:39;;;;;;;12.07;8.63;;;;;;;;;;5061912;28;20397;-62
2023/07/11 03:40:25;;;;;;;14.13;8.60;;;;;;;;;;5044011;28;20095;-64
2023/07/11 03:43:10;;;;;;;14.70;8.20;;;;;;;;;;5038901;28;20043;-66
2023/07/11 03:45:55;;;;;;;14.32;9.00;;;;;;;;;;5048467;28;20031;-75
2023/07/11 03:48:41;;;;;;;12.18;8.40;;;;;;;;;;5047610;28;20218;-75
2023/07/11 03:51:26;;;;;;;14.77;9.38;;;;;;;;;;5038228;28;20017;-75
2023/07/11 03:54:11;;;;;;;12.95;8.95;;;;;;;;;;5046570;28;20040;-76
2023/07/11 03:56:57;;;;;;;12.30;7.38;;;;;;;;;;5056289;28;20025;-74
2023/07/11 03:59:42;;;;;;;12.32;7.85;;;;;;;;;;5062482;28;20423;-61
2023/07/11 04:02:27;;;;;;;17.00;8.18;;;;;;;;;;5046938;28;20029;-65
2023/07/11 04:05:12;;;;;;;12.45;9.27;;;;;;;;;;5046640;28;20071;-66
2023/07/11 04:07:57;;;;;;;13.70;9.18;;;;;;;;;;5037615;28;20048;-65
2023/07/11 04:10:43;;;;;;;14.77;9.13;;;;;;;;;;5045936;28;20040;-66
2023/07/11 04:13:28;;;;;;;12.80;7.70;;;;;;;;;;5047088;28;20124;-65
2023/07/11 04:16:13;;;;;;;12.63;6.93;;;;;;;;;;5033831;28;20638;-66
2023/07/11 04:18:58;;;;;;;13.07;8.73;;;;;;;;;;5047575;28;20033;-69
2023/07/11 04:21:44;;;;;;;13.50;9.48;;;;;;;;;;5027795;28;20032;-67
2023/07/11 04:24:29;;;;;;;15.82;9.65;;;;;;;;;;5042593;28;20465;-66
2023/07/11 04:27:14;;;;;;;13.25;9.70;;;;;;;;;;5052027;28;20021;-66
2023/07/11 04:29:59;;;;;;;13.00;9.10;;;;;;;;;;5050959;28;20087;-66
2023/07/11 04:32:44;;;;;;;15.93;9.90;;;;;;;;;;5041385;28;20513;-66
2023/07/11 04:35:30;;;;;;;13.80;9.60;;;;;;;;;;5048270;28;20036;-72
2023/07/11 04:38:15;;;;;;;11.98;8.68;;;;;;;;;;5044459;28;20167;-65
2023/07/11 04:41:02;;;;;;;14.52;9.38;;;;;;;;;;5044860;28;20041;-63
2023/07/11 04:43:47;;;;;;;18.35;10.15;;;;;;;;;;5045876;28;20059;-64
2023/07/11 04:46:32;;;;;;;16.92;9.63;;;;;;;;;;5041725;28;20073;-63
2023/07/11 04:49:17;;;;;;;15.48;9.55;;;;;;;;;;5053768;28;20025;-65
2023/07/11 04:52:03;;;;;;;13.75;9.05;;;;;;;;;;5044013;28;20033;-65
2023/07/11 04:54:48;;;;;;;14.15;10.07;;;;;;;;;;5045261;28;20041;-67
2023/07/11 04:57:33;;;;;;;13.90;8.90;;;;;;;;;;5042426;28;20024;-62
2023/07/11 05:00:18;;;;;;;16.80;10.20;;;;;;;;;;5047004;28;20029;-62
2023/07/11 05:03:04;;;;;;;15.40;9.45;;;;;;;;;;5041715;28;20693;-61
2023/07/11 05:05:49;;;;;;;14.98;9.40;;;;;;;;;;5044167;28;20068;-62
2023/07/11 05:08:34;;;;;;;14.43;9.82;;;;;;;;;;5042381;28;20108;-61
2023/07/11 05:11:20;;;;;;;18.52;8.40;;;;;;;;;;5042905;28;20044;-62
2023/07/11 05:14:05;;;;;;;11.77;8.75;;;;;;;;;;5040425;28;20044;-66
2023/07/11 05:16:50;;;;;;;15.77;8.77;;;;;;;;;;5025301;28;20277;-59
2023/07/11 05:19:36;;;;;;;12.95;8.25;;;;;;;;;;5038406;28;20032;-59
2023/07/11 05:22:21;;;;;;;15.20;8.38;;;;;;;;;;5035959;28;20153;-62
2023/07/11 05:25:06;;;;;;;12.60;7.40;;;;;;;;;;5037466;28;20123;-64
2023/07/11 05:27:51;;;;;;;16.85;7.85;;;;;;;;;;5042722;28;20365;-62
2023/07/11 05:30:37;;;;;;;12.20;7.75;;;;;;;;;;5040010;28;20054;-64
2023/07/11 05:33:23;;;;;;;14.73;7.88;;;;;;;;;;5045115;28;20395;-65
2023/07/11 05:38:55;;;;;;;12.82;8.60;;;;;;;;;;5047238;28;20033;-61
2023/07/11 05:41:50;;;;;;;13.02;8.93;;;;;;;;;;5034398;28;20033;-60
2023/07/11 05:44:35;;;;;;;11.20;8.07;;;;;;;;;;5040009;28;20017;-61
2023/07/11 05:47:20;;;;;;;11.38;6.95;;;;;;;;;;5048325;28;20542;-60
2023/07/11 05:50:06;;;;;;;11.73;7.57;;;;;;;;;;5044501;28;20033;-62
2023/07/11 05:52:51;;;;;;;16.08;7.43;;;;;;;;;;5034037;28;20033;-65
2023/07/11 05:55:36;;;;;;;12.13;7.85;;;;;;;;;;5049652;28;20041;-66
2023/07/11 05:58:21;;;;;;;11.93;7.60;;;;;;;;;;5050348;28;20029;-68
2023/07/11 06:01:07;;;;;;;12.43;7.30;;;;;;;;;;5048872;28;20531;-69
2023/07/11 06:04:01;;;;;;;11.32;7.38;;;;;;;;;;5050474;28;20025;-68
2023/07/11 06:06:46;;;;;;;13.85;7.43;;;;;;;;;;5040164;28;20040;-70
2023/07/11 06:09:32;;;;;;;14.27;7.43;;;;;;;;;;5050863;28;20426;-69
2023/07/11 06:12:17;;;;;;;10.30;6.82;;;;;;;;;;5046856;28;20026;-69
2023/07/11 06:15:02;;;;;;;10.10;7.18;;;;;;;;;;5047380;28;20052;-68
2023/07/11 06:17:47;;;;;;;13.25;7.53;;;;;;;;;;5044846;28;20128;-68
2023/07/11 06:20:34;;;;;;;11.57;7.20;;;;;;;;;;5043838;28;20043;-71
2023/07/11 06:23:20;;;;;;;11.13;7.75;;;;;;;;;;5048465;28;20037;-69
2023/07/11 06:26:05;;;;;;;10.10;6.55;;;;;;;;;;5042451;28;20143;-71
2023/07/11 06:28:50;;;;;;;11.85;7.65;;;;;;;;;;5046348;28;20677;-70
2023/07/11 06:31:35;;;;;;;12.95;6.78;;;;;;;;;;5043846;28;20025;-69
2023/07/11 06:34:21;;;;;;;9.65;6.40;;;;;;;;;;5043268;28;20033;-68
2023/07/11 06:37:06;;;;;;;11.40;6.60;;;;;;;;;;5051215;28;20117;-68
2023/07/11 06:39:51;;;;;;;12.57;6.85;;;;;;;;;;5043315;28;20146;-68
2023/07/11 06:42:42;;;;;;;12.32;7.45;;;;;;;;;;5044076;28;20494;-67
2023/07/11 06:45:27;;;;;;;10.60;6.25;;;;;;;;;;5045648;28;20044;-68
2023/07/11 06:48:17;;;;;;;10.20;6.90;;;;;;;;;;5040463;28;20049;-65
2023/07/11 06:51:02;;;;;;;12.10;6.53;;;;;;;;;;5043044;28;20041;-66
2023/07/11 06:53:49;;;;;;;9.05;5.80;;;;;;;;;;5044725;28;20094;-66
2023/07/11 06:56:34;;;;;;;8.90;5.57;;;;;;;;;;5045558;28;20242;-65
2023/07/11 06:59:19;;;;;;;8.23;5.20;;;;;;;;;;5045231;28;20085;-65
2023/07/11 07:02:05;;;;;;;11.60;5.72;;;;;;;;;;5057613;28;20035;-66
2023/07/11 07:04:50;;;;;;;9.57;5.57;;;;;;;;;;5038268;28;20032;-71
2023/07/11 07:07:37;;;;;;;7.88;4.63;;;;;;;;;;5052241;28;20440;-73
2023/07/11 07:10:22;;;;;;;7.47;4.75;;;;;;;;;;5028808;28;20049;-76
2023/07/11 07:13:07;;;;;;;7.50;4.75;;;;;;;;;;5024492;28;20488;-75
2023/07/11 07:15:54;;;;;;;10.07;4.97;;;;;;;;;;5042698;28;20025;-76
2023/07/11 07:18:41;;;;;;;7.30;4.82;;;;;;;;;;5046938;28;20029;-72
2023/07/11 07:21:27;;;;;;;6.50;3.92;;;;;;;;;;5044883;28;20048;-78
2023/07/11 07:24:13;;;;;;;8.00;4.20;;;;;;;;;;5045334;28;20029;-73
2023/07/11 07:26:58;;;;;;;8.43;4.38;;;;;;;;;;5042199;28;20029;-68
2023/07/11 07:29:43;;;;;;;7.07;4.00;;;;;;;;;;5040172;28;20041;-69
2023/07/11 07:32:29;;;;;;;7.15;4.18;;;;;;;;;;5038210;28;20036;-67
2023/07/11 07:35:14;;;;;;;8.30;4.18;;;;;;;;;;5042332;28;20501;-68
2023/07/11 07:37:59;;;;;;;6.63;4.10;;;;;;;;;;5043523;28;20074;-69
2023/07/11 07:40:50;;;;;;;8.98;4.43;;;;;;;;;;5051693;28;20031;-76
2023/07/11 07:43:36;;;;;;;15.98;6.07;;;;;;;;;;5040878;28;20029;-79
2023/07/11 07:46:21;;;;;;;18.95;5.57;;;;;;;;;;5041529;28;20040;-79
2023/07/11 07:49:06;;;;;;;10.00;4.90;;;;;;;;;;5041943;28;20025;-78
2023/07/11 07:51:53;;;;;;;11.27;4.22;;;;;;;;;;5045145;28;20114;-82
2023/07/11 07:54:38;;;;;;;7.35;4.22;;;;;;;;;;5044488;28;20040;-78
2023/07/11 07:57:24;;;;;;;10.32;5.07;;;;;;;;;;5045012;28;20522;-77
2023/07/11 08:00:09;;;;;;;6.32;4.57;;;;;;;;;;5042750;28;20044;-68
2023/07/11 08:02:54;;;;;;;10.30;4.47;;;;;;;;;;5044821;28;20537;-69
2023/07/11 08:05:39;;;;;;;8.75;3.80;;;;;;;;;;5042493;28;20025;-68
2023/07/11 08:08:25;;;;;;;6.65;4.20;;;;;;;;;;5048313;28;20040;-69
2023/07/11 08:11:11;;;;;;;6.60;4.15;;;;;;;;;;5048015;28;20272;-69
2023/07/11 08:13:57;;;;;;;6.63;4.38;;;;;;;;;;5060576;28;20044;-69
2023/07/11 08:16:42;;;;;;;6.22;4.20;;;;;;;;;;5043342;28;21100;-72
2023/07/11 08:19:27;;;;;;;8.90;4.20;;;;;;;;;;5028885;28;20036;-66
2023/07/11 08:22:13;;;;;;;6.70;4.68;;;;;;;;;;5036109;28;20148;-79
2023/07/11 08:24:58;;;;;;;10.15;4.22;;;;;;;;;;5040907;28;20028;-79
2023/07/11 08:27:43;;;;;;;5.85;4.00;;;;;;;;;;5043221;28;20033;-79
2023/07/11 08:30:28;;;;;;;7.88;4.25;;;;;;;;;;5042374;28;20085;-80
2023/07/11 08:33:14;;;;;;;6.65;4.63;;;;;;;;;;5038364;28;20120;-78
2023/07/11 08:35:59;;;;;;;7.82;4.20;;;;;;;;;;5041918;28;20040;-73
2023/07/11 08:38:45;;;;;;;6.60;4.60;;;;;;;;;;5044535;28;20120;-78
2023/07/11 08:41:34;;;;;;;8.00;4.38;;;;;;;;;;5039300;28;20036;-79
2023/07/11 08:44:22;;;;;;;7.50;4.68;;;;;;;;;;5048044;28;20291;-81
2023/07/11 08:47:19;;;;;;;11.25;4.93;;;;;;;;;;5040809;28;20037;-75
2023/07/11 08:50:08;;;;;;;6.72;4.13;;;;;;;;;;5043254;28;20515;-75
2023/07/11 08:52:59;;;;;;;8.23;4.55;;;;;;;;;;5044295;28;20056;-78
2023/07/11 08:55:49;;;;;;;8.80;4.60;;;;;;;;;;5039333;28;20392;-77
2023/07/11 08:58:37;;;;;;;5.68;4.20;;;;;;;;;;5036553;28;20601;-70
2023/07/11 09:01:26;;;;;;;8.03;4.37;;;;;;;;;;5041596;28;20650;-70
2023/07/11 09:04:14;;;;;;;11.23;5.05;;;;;;;;;;5047283;28;20100;-71
2023/07/11 09:07:04;;;;;;;6.60;4.30;;;;;;;;;;5035683;28;20506;-70
2023/07/11 09:09:50;;;;;;;6.80;4.30;;;;;;;;;;5045123;28;20086;-70
2023/07/11 09:12:50;;;;;;;7.10;5.30;;;;;;;;;;5048359;28;20403;-75
2023/07/11 09:15:41;;;;;;;8.00;4.85;;;;;;;;;;5049629;28;20037;-70
2023/07/11 09:18:26;;;;;;;6.93;4.00;;;;;;;;;;5049771;28;20033;-71
2023/07/11 09:21:19;;;;;;;6.35;4.32;;;;;;;;;;5046499;28;20067;-73
2023/07/11 09:24:13;;;;;;;6.70;4.57;;;;;;;;;;5046434;28;20040;-72
2023/07/11 09:27:01;;;;;;;8.07;4.72;;;;;;;;;;5045543;28;20488;-71
2023/07/11 09:29:47;;;;;;;9.02;5.40;;;;;;;;;;5029599;28;20031;-73
2023/07/11 09:32:33;;;;;;;10.63;4.68;;;;;;;;;;5040093;28;20038;-67
2023/07/11 09:35:18;;;;;;;7.95;4.75;;;;;;;;;;5042492;28;20444;-69
2023/07/11 09:38:06;;;;;;;6.90;4.53;;;;;;;;;;5042251;28;20550;-69
2023/07/11 09:40:56;;;;;;;7.85;4.68;;;;;;;;;;5045492;28;20033;-69
2023/07/11 09:43:42;;;;;;;9.40;4.57;;;;;;;;;;5047552;28;20457;-70
2023/07/11 09:46:27;;;;;;;8.70;5.22;;;;;;;;;;5045290;28;20029;-69
2023/07/11 09:49:18;;;;;;;8.73;4.90;;;;;;;;;;5050076;28;20500;-79
2023/07/11 09:52:03;;;;;;;11.13;5.80;;;;;;;;;;5048397;28;20099;-71
2023/07/11 09:54:48;;;;;;;10.07;5.25;;;;;;;;;;5043046;28;20127;-73
2023/07/11 09:57:34;;;;;;;5.57;4.20;;;;;;;;;;5045709;28;20429;-72
2023/07/11 10:00:19;;;;;;;7.25;4.45;;;;;;;;;;5045538;28;20061;-70
2023/07/11 10:03:04;;;;;;;7.72;4.72;;;;;;;;;;5040714;28;20025;-71
2023/07/11 10:05:51;;;;;;;8.23;4.97;;;;;;;;;;5048882;28;20029;-70
2023/07/11 10:08:43;;;;;;;7.80;4.40;;;;;;;;;;5047636;28;20400;-69
2023/07/11 10:11:28;;;;;;;8.02;4.43;;;;;;;;;;5047357;28;20045;-70
2023/07/11 10:14:17;;;;;;;6.07;4.50;;;;;;;;;;5044860;28;21046;-70
2023/07/11 10:17:11;;;;;;;8.00;4.63;;;;;;;;;;5041914;28;20047;-72
2023/07/11 10:19:58;;;;;;;8.00;4.45;;;;;;;;;;5050691;28;20503;-70
2023/07/11 10:22:44;;;;;;;8.65;4.50;;;;;;;;;;5033551;28;20094;-72
2023/07/11 10:25:31;;;;;;;8.07;4.60;;;;;;;;;;5038926;28;20036;-73
2023/07/11 10:28:20;;;;;;;10.23;5.13;;;;;;;;;;5044716;28;20104;-70
2023/07/11 10:31:18;;;;;;;9.38;5.10;;;;;;;;;;5049902;28;20063;-69
2023/07/11 10:34:13;;;;;;;7.40;5.00;;;;;;;;;;5050010;28;20076;-70
2023/07/11 10:37:08;;;;;;;8.88;4.70;;;;;;;;;;5048547;28;20051;-68
2023/07/11 10:39:59;;;;;;;9.43;5.35;;;;;;;;;;5045123;28;20029;-69
2023/07/11 10:42:51;;;;;;;6.80;4.68;;;;;;;;;;5046589;28;20033;-70
2023/07/11 10:45:39;;;;;;;8.40;4.65;;;;;;;;;;5047224;28;20415;-69
2023/07/11 10:48:34;;;;;;;9.18;6.00;;;;;;;;;;5063135;28;20029;-79
2023/07/11 10:51:21;;;;;;;9.25;5.15;;;;;;;;;;5044099;28;20021;-78
2023/07/11 10:54:22;;;;;;;6.55;4.35;;;;;;;;;;5056694;28;20055;-77
2023/07/11 10:57:13;;;;;;;7.68;5.28;;;;;;;;;;5048707;28;20037;-77
2023/07/11 10:59:59;;;;;;;8.18;5.22;;;;;;;;;;5066673;28;20491;-81
2023/07/11 11:02:59;;;;;;;8.13;4.88;;;;;;;;;;5043009;28;20017;-78
2023/07/11 11:05:44;;;;;;;6.53;4.55;;;;;;;;;;5048553;28;20051;-78
2023/07/11 11:08:53;;;;;;;8.57;5.35;;;;;;;;;;5052514;28;20062;-77
2023/07/11 11:11:53;;;;;;;9.45;4.68;;;;;;;;;;5045250;28;20044;-78
2023/07/11 11:14:46;;;;;;;8.00;5.18;;;;;;;;;;5044860;28;20539;-77
2023/07/11 11:17:37;;;;;;;9.43;5.30;;;;;;;;;;5062545;28;20064;-76
2023/07/11 11:20:37;;;;;;;7.88;4.63;;;;;;;;;;5058410;28;20206;-77
2023/07/11 11:23:47;;;;;;;11.77;5.78;;;;;;;;;;5065735;28;20524;-69
2023/07/11 11:26:45;;;;;;;8.23;5.30;;;;;;;;;;5044460;28;20032;-70
2023/07/11 11:29:31;;;;;;;7.90;4.68;;;;;;;;;;5042831;28;20029;-69
2023/07/11 11:32:16;;;;;;;8.30;5.15;;;;;;;;;;5045076;28;20387;-70
2023/07/11 11:35:22;;;;;;;10.43;6.18;;;;;;;;;;5044425;28;20500;-71
2023/07/11 11:38:07;;;;;;;9.25;5.38;;;;;;;;;;5044000;28;20043;-70
2023/07/11 11:40:56;;;;;;;10.07;6.35;;;;;;;;;;5041277;28;20064;-67
2023/07/11 11:43:41;;;;;;;;;;;;;;;;;;5042635;28;20112;-65
2023/07/11 11:46:27;;;;;;;6.53;5.07;;;;;;;;;;5043665;28;20386;-66
2023/07/11 11:49:13;;;;;;;10.70;5.00;;;;;;;;;;5042006;28;20495;-68
2023/07/11 11:51:58;;;;;;;9.85;5.07;;;;;;;;;;5045769;28;20399;-68
2023/07/11 11:54:45;;;;;;;9.95;5.10;;;;;;;;;;5059511;28;20032;-67
2023/07/11 11:57:33;;;;;;;11.05;5.07;;;;;;;;;;5044325;28;20090;-69
2023/07/11 12:00:38;;;;;;;9.23;5.05;;;;;;;;;;5046207;28;20535;-69
2023/07/11 12:03:26;;;;;;;14.55;6.22;;;;;;;;;;5057072;28;20172;-78
2023/07/11 12:06:30;;;;;;;7.22;4.60;;;;;;;;;;5046800;28;20114;-76
2023/07/11 12:09:37;;;;;;;10.93;4.60;;;;;;;;;;5043440;28;20127;-76
2023/07/11 12:12:25;;;;;;;9.18;5.13;;;;;;;;;;5044861;28;20060;-75
2023/07/11 12:15:10;;;;;;;9.18;4.95;;;;;;;;;;5044556;28;20135;-77
2023/07/11 12:18:12;;;;;;;10.32;5.35;;;;;;;;;;5044789;28;20024;-77
2023/07/11 12:21:24;;;;;;;9.13;5.43;;;;;;;;;;5044440;28;20452;-67
2023/07/11 12:24:20;;;;;;;13.55;4.78;;;;;;;;;;5056854;28;20380;-69
2023/07/11 12:27:10;;;;;;;9.23;4.90;;;;;;;;;;5048352;28;20037;-66
2023/07/11 12:29:55;;;;;;;9.45;5.55;;;;;;;;;;5058276;28;20029;-70
2023/07/11 12:32:46;;;;;;;9.13;5.55;;;;;;;;;;5045143;28;20025;-68
2023/07/11 12:35:34;;;;;;;8.43;5.50;;;;;;;;;;5044785;28;20120;-76
2023/07/11 12:38:22;;;;;;;6.53;4.27;;;;;;;;;;5029067;28;20591;-74
2023/07/11 12:41:07;;;;;;;;;;;;;;;;;;5043710;28;20468;-80
2023/07/11 12:43:53;;;;;;;8.60;4.45;;;;;;;;;;5035258;28;19912;-72
2023/07/11 12:46:38;;;;;;;11.73;5.38;;;;;;;;;;5042539;28;20037;-73
2023/07/11 12:49:26;;;;;;;7.65;5.00;;;;;;;;;;5043446;28;20059;-74
2023/07/11 12:52:13;;;;;;;9.70;5.00;;;;;;;;;;5042910;28;20030;-75
2023/07/11 12:55:01;;;;;;;7.28;4.70;;;;;;;;;;5044639;28;20543;-70
2023/07/11 12:57:46;;;;;;;9.20;5.55;;;;;;;;;;5046910;28;20029;-73
2023/07/11 13:00:32;;;;;;;8.25;5.22;;;;;;;;;;5057347;28;20252;-71
2023/07/11 13:03:28;;;;;;;8.65;4.75;;;;;;;;;;5048220;28;20175;-71
2023/07/11 13:06:19;;;;;;;8.02;4.65;;;;;;;;;;5046645;28;20028;-72
2023/07/11 13:09:09;;;;;;;9.98;5.32;;;;;;;;;;5046288;28;20141;-71
2023/07/11 13:11:54;;;;;;;11.80;4.82;;;;;;;;;;5045382;28;20094;-71
2023/07/11 13:14:41;;;;;;;7.32;4.88;;;;;;;;;;5046507;28;20041;-67
2023/07/11 13:17:26;;;;;;;7.05;4.85;;;;;;;;;;5047716;28;20545;-67
2023/07/11 13:20:18;;;;;;;7.65;4.80;;;;;;;;;;5046788;28;20446;-68
2023/07/11 13:23:03;;;;;;;11.60;5.57;;;;;;;;;;5043727;28;20037;-66
2023/07/11 13:25:48;;;;;;;9.25;5.20;;;;;;;;;;5042512;28;20037;-66
2023/07/11 13:28:36;;;;;;;11.75;5.50;;;;;;;;;;5033073;28;20053;-66
2023/07/11 13:31:22;;;;;;;9.77;5.03;;;;;;;;;;5051952;28;20024;-73
2023/07/11 13:34:12;;;;;;;7.28;4.88;;;;;;;;;;5047966;28;20200;-82
2023/07/11 13:36:58;;;;;;;7.22;4.70;;;;;;;;;;5043258;28;20435;-75
2023/07/11 13:39:46;;;;;;;7.43;4.90;;;;;;;;;;5047910;28;20120;-84
2023/07/11 13:42:33;;;;;;;10.02;5.07;;;;;;;;;;5047425;28;20025;-81
2023/07/11 13:45:18;;;;;;;9.65;4.80;;;;;;;;;;5048089;28;20037;-78
2023/07/11 13:48:04;;;;;;;11.07;5.20;;;;;;;;;;5046555;28;20033;-81
2023/07/11 13:51:07;;;;;;;10.68;5.05;;;;;;;;;;5046019;28;20456;-79
2023/07/11 13:53:54;;;;;;;8.00;5.50;;;;;;;;;;5045560;28;20722;-81
2023/07/11 13:56:39;;;;;;;10.18;6.00;;;;;;;;;;5037301;28;20048;-81
2023/07/11 13:59:24;;;;;;;8.02;4.97;;;;;;;;;;5048827;28;20079;-77
2023/07/11 14:02:17;;;;;;;7.78;5.20;;;;;;;;;;5026576;28;20048;-80
2023/07/11 14:05:03;;;;;;;9.95;5.38;;;;;;;;;;5054767;28;20040;-82
2023/07/11 14:07:49;;;;;;;8.70;5.82;;;;;;;;;;5047583;28;20112;-69
2023/07/11 14:10:34;;;;;;;8.63;4.93;;;;;;;;;;5060818;28;20029;-74
2023/07/11 14:13:21;;;;;;;7.60;5.10;;;;;;;;;;5043146;28;20582;-75
2023/07/11 14:16:08;;;;;;;8.45;5.97;;;;;;;;;;5044899;28;20555;-78
2023/07/11 14:18:55;;;;;;;9.32;5.68;;;;;;;;;;5051468;28;20032;-75
2023/07/11 14:21:40;;;;;;;10.25;5.30;;;;;;;;;;5043408;28;20032;-76
2023/07/11 14:24:26;;;;;;;8.43;5.22;;;;;;;;;;5045497;28;20446;-70
2023/07/11 14:27:15;;;;;;;9.35;6.50;;;;;;;;;;5043637;28;20029;-70
2023/07/11 14:30:00;;;;;;;9.20;5.72;;;;;;;;;;5045636;28;21747;-72
2023/07/11 14:32:46;;;;;;;10.43;5.85;;;;;;;;;;5042030;28;20033;-71
2023/07/11 14:35:31;;;;;;;10.00;6.28;;;;;;;;;;5052078;28;20050;-71
2023/07/11 14:38:18;;;;;;;8.20;5.68;;;;;;;;;;5030416;28;20032;-69
2023/07/11 14:41:04;;;;;;;10.88;6.13;;;;;;;;;;5045515;28;20036;-70
2023/07/11 14:43:49;;;;;;;10.10;6.40;;;;;;;;;;5046581;28;20036;-65
2023/07/11 14:46:34;;;;;;;11.35;6.63;;;;;;;;;;5040858;28;20380;-68
2023/07/11 14:49:20;;;;;;;10.13;6.22;;;;;;;;;;5041604;28;20273;-67
2023/07/11 14:52:17;;;;;;;10.07;6.40;;;;;;;;;;5045817;28;20124;-67
2023/07/11 14:55:08;;;;;;;8.27;5.60;;;;;;;;;;5044868;28;20041;-66
2023/07/11 14:57:55;;;;;;;10.32;6.13;;;;;;;;;;5044535;28;20507;-67
2023/07/11 15:00:40;;;;;;;9.70;6.28;;;;;;;;;;5047323;28;20036;-66
2023/07/11 15:03:26;;;;;;;11.70;7.20;;;;;;;;;;5040141;28;20029;-70
2023/07/11 15:06:11;;;;;;;8.52;5.85;;;;;;;;;;5048481;28;20033;-73
2023/07/11 15:08:56;;;;;;;10.40;6.70;;;;;;;;;;5052496;28;20045;-72
2023/07/11 15:11:47;;;;;;;10.25;5.95;;;;;;;;;;5048157;28;20032;-72
2023/07/11 15:14:32;;;;;;;9.70;6.53;;;;;;;;;;5062501;28;20041;-71
2023/07/11 15:17:22;;;;;;;9.13;6.97;;;;;;;;;;5039190;28;20476;-71
2023/07/11 15:20:11;;;;;;;13.02;6.65;;;;;;;;;;5047064;28;20040;-68
2023/07/11 15:22:57;;;;;;;10.90;6.68;;;;;;;;;;5049245;28;20028;-67
2023/07/11 15:25:44;;;;;;;10.32;6.43;;;;;;;;;;5046750;28;20029;-68
2023/07/11 15:28:29;;;;;;;10.88;6.07;;;;;;;;;;5053573;28;20070;-69
2023/07/11 15:31:16;;;;;;;10.60;6.80;;;;;;;;;;5048347;28;20480;-66
2023/07/11 15:34:01;;;;;;;9.80;6.90;;;;;;;;;;5046205;28;20196;-68
2023/07/11 15:36:47;;;;;;;10.10;6.72;;;;;;;;;;5042069;28;20021;-68
2023/07/11 15:39:32;;;;;;;10.05;6.97;;;;;;;;;;5050578;28;20033;-69
2023/07/11 15:42:23;;;;;;;10.98;6.78;;;;;;;;;;5034413;28;20017;-67
2023/07/11 15:45:14;;;;;;;10.75;6.75;;;;;;;;;;5061813;28;20036;-67
2023/07/11 15:47:59;;;;;;;11.20;6.45;;;;;;;;;;5038268;28;20506;-65
2023/07/11 15:50:45;;;;;;;9.88;6.60;;;;;;;;;;5043353;28;20043;-71
2023/07/11 15:53:30;;;;;;;10.95;6.90;;;;;;;;;;5048066;28;20097;-69
2023/07/11 15:56:15;;;;;;;9.27;7.32;;;;;;;;;;5046636;28;20017;-68
2023/07/11 15:59:04;;;;;;;13.15;7.68;;;;;;;;;;5031293;28;20404;-76
2023/07/11 16:01:50;;;;;;;11.67;7.20;;;;;;;;;;5043231;28;20519;-76
2023/07/11 16:04:35;;;;;;;10.65;7.18;;;;;;;;;;5030862;28;20104;-76
2023/07/11 16:07:21;;;;;;;11.82;7.65;;;;;;;;;;5052107;28;20527;-76
2023/07/11 16:10:13;;;;;;;12.63;7.13;;;;;;;;;;5046656;28;20040;-80
2023/07/11 16:13:00;;;;;;;11.20;7.03;;;;;;;;;;5054037;28;20067;-78
2023/07/11 16:15:45;;;;;;;11.65;7.22;;;;;;;;;;5041035;28;20036;-70
2023/07/11 16:18:31;;;;;;;11.95;6.80;;;;;;;;;;5033107;28;20120;-69
2023/07/11 16:21:16;;;;;;;10.77;7.40;;;;;;;;;;5046687;28;20074;-67
2023/07/11 16:24:01;;;;;;;9.93;6.00;;;;;;;;;;5040875;28;20074;-68
2023/07/11 16:26:48;;;;;;;11.02;7.20;;;;;;;;;;5042016;28;20029;-69
2023/07/11 16:29:33;;;;;;;9.25;6.65;;;;;;;;;;5041910;28;20060;-70
2023/07/11 16:32:18;;;;;;;8.35;6.57;;;;;;;;;;5043507;28;20013;-70
2023/07/11 16:35:04;;;;;;;10.25;5.63;;;;;;;;;;5046431;28;20033;-79
2023/07/11 16:37:50;;;;;;;10.60;5.82;;;;;;;;;;5067244;23;20099;-79